createdAt,value
2023-04-08T00:01:26.204Z,12.63
2023-04-08T00:03:53.709Z,12.82
2023-04-08T00:06:21.172Z,11.70
2023-04-08T00:08:48.654Z,11.65
2023-04-08T00:11:18.433Z,12.20
2023-04-08T00:13:46.052Z,12.15
2023-04-08T00:16:13.319Z,11.73
2023-04-08T00:18:42.854Z,10.82
2023-04-08T00:21:18.068Z,10.98
2023-04-08T00:23:45.359Z,11.30
2023-04-08T00:26:12.704Z,10.73
2023-04-08T00:28:43.172Z,11.10
2023-04-08T00:31:10.594Z,10.35
2023-04-08T00:33:37.844Z,10.48
2023-04-08T00:36:05.339Z,10.75
2023-04-08T00:38:32.646Z,10.88
2023-04-08T00:41:05.022Z,11.10
2023-04-08T00:43:37.204Z,11.25
2023-04-08T00:46:06.885Z,11.65
2023-04-08T00:48:36.949Z,10.75
2023-04-08T00:51:04.480Z,10.93
2023-04-08T00:53:32.548Z,11.85
2023-04-08T00:56:01.337Z,10.77
2023-04-08T00:58:31.854Z,11.30
2023-04-08T01:01:09.366Z,11.77
2023-04-08T01:04:02.954Z,11.55
2023-04-08T01:06:42.799Z,12.68
2023-04-08T01:09:11.317Z,11.27
2023-04-08T01:11:44.229Z,10.65
2023-04-08T01:14:15.820Z,11.23
2023-04-08T01:16:46.097Z,12.32
2023-04-08T01:19:26.942Z,11.13
2023-04-08T01:21:58.587Z,10.80
2023-04-08T01:24:33.953Z,10.80
2023-04-08T01:27:05.641Z,11.05
2023-04-08T01:32:04.085Z,10.95
2023-04-08T01:34:32.618Z,9.93
2023-04-08T01:37:00.333Z,10.07
2023-04-08T01:39:31.341Z,10.68
2023-04-08T01:42:02.627Z,10.30
2023-04-08T01:44:33.512Z,10.65
2023-04-08T01:47:05.864Z,10.15
2023-04-08T01:49:34.030Z,10.80
2023-04-08T01:52:02.562Z,9.73
2023-04-08T01:54:30.076Z,9.00
2023-04-08T01:57:01.652Z,9.23
2023-04-08T01:59:36.541Z,9.32
2023-04-08T02:02:06.193Z,8.75
2023-04-08T02:04:36.401Z,10.00
2023-04-08T02:07:04.748Z,9.70
2023-04-08T02:09:32.075Z,9.38
2023-04-08T02:12:01.785Z,8.82
2023-04-08T02:14:31.868Z,8.88
2023-04-08T02:17:33.117Z,9.38
2023-04-08T02:20:11.804Z,8.90
2023-04-08T02:23:02.397Z,9.52
2023-04-08T02:25:30.971Z,8.40
2023-04-08T02:28:01.381Z,9.02
2023-04-08T02:30:31.551Z,8.98
2023-04-08T02:33:03.517Z,8.88
2023-04-08T02:35:33.393Z,9.13
2023-04-08T02:38:03.134Z,8.73
2023-04-08T02:40:33.094Z,8.57
2023-04-08T02:43:00.766Z,8.95
2023-04-08T02:45:32.121Z,9.05
2023-04-08T02:48:01.068Z,8.77
2023-04-08T02:50:30.559Z,8.80
2023-04-08T02:52:57.843Z,9.27
2023-04-08T02:55:25.374Z,8.70
2023-04-08T02:57:55.252Z,9.07
2023-04-08T03:00:22.636Z,8.55
2023-04-08T03:02:50.019Z,8.40
2023-04-08T03:05:17.565Z,8.32
2023-04-08T03:07:44.874Z,9.32
2023-04-08T03:10:12.451Z,9.25
2023-04-08T03:12:39.832Z,9.40
2023-04-08T03:15:07.737Z,10.10
2023-04-08T03:17:35.426Z,9.80
2023-04-08T03:20:05.325Z,9.40
2023-04-08T03:22:33.679Z,9.77
2023-04-08T03:25:01.132Z,9.60
2023-04-08T03:27:28.603Z,9.50
2023-04-08T03:29:57.798Z,9.38
2023-04-08T03:32:25.297Z,9.55
2023-04-08T03:34:52.792Z,9.55
2023-04-08T03:37:20.244Z,9.15
2023-04-08T03:39:47.540Z,9.02
2023-04-08T03:42:14.892Z,9.20
2023-04-08T03:44:42.167Z,9.15
2023-04-08T03:47:12.338Z,8.90
2023-04-08T03:49:39.605Z,8.95
2023-04-08T03:52:07.286Z,9.68
2023-04-08T03:54:39.272Z,9.70
2023-04-08T03:57:06.549Z,10.00
2023-04-08T03:59:34.174Z,10.35
2023-04-08T04:02:04.015Z,9.82
2023-04-08T04:04:34.406Z,12.52
2023-04-08T04:07:01.849Z,11.73
2023-04-08T04:09:31.499Z,11.63
2023-04-08T04:12:01.232Z,10.23
2023-04-08T04:14:31.034Z,9.15
2023-04-08T04:17:00.778Z,10.65
2023-04-08T04:19:31.653Z,10.43
2023-04-08T04:22:01.117Z,10.18
2023-04-08T04:24:28.362Z,10.68
2023-04-08T04:26:57.767Z,9.95
2023-04-08T04:29:25.160Z,10.43
2023-04-08T04:31:52.406Z,10.18
2023-04-08T04:34:24.197Z,9.88
2023-04-08T04:39:18.541Z,10.40
2023-04-08T04:41:49.219Z,9.93
2023-04-08T04:44:16.848Z,10.20
2023-04-08T04:46:46.418Z,10.18
2023-04-08T04:49:13.766Z,10.25
2023-04-08T04:51:41.037Z,10.25
2023-04-08T04:54:13.134Z,9.98
2023-04-08T04:56:42.819Z,10.43
2023-04-08T04:59:12.979Z,10.30
2023-04-08T05:01:45.496Z,9.93
2023-04-08T05:04:15.146Z,10.48
2023-04-08T05:06:44.959Z,9.80
2023-04-08T05:09:12.246Z,10.00
2023-04-08T05:11:39.508Z,9.52
2023-04-08T05:14:11.354Z,10.50
2023-04-08T05:16:39.270Z,10.20
2023-04-08T05:19:11.560Z,10.77
2023-04-08T05:21:38.804Z,10.50
2023-04-08T05:24:06.161Z,11.00
2023-04-08T05:26:33.470Z,11.85
2023-04-08T05:29:00.827Z,11.90
2023-04-08T05:31:31.121Z,11.20
2023-04-08T05:33:58.441Z,12.60
2023-04-08T05:36:26.425Z,13.13
2023-04-08T05:38:53.698Z,14.00
2023-04-08T05:41:23.409Z,13.45
2023-04-08T05:43:50.681Z,13.75
2023-04-08T05:46:18.027Z,14.32
2023-04-08T05:48:50.825Z,14.48
2023-04-08T05:51:18.345Z,13.65
2023-04-08T05:53:47.085Z,14.27
2023-04-08T05:56:16.748Z,14.38
2023-04-08T05:58:46.610Z,13.95
2023-04-08T06:01:16.724Z,13.75
2023-04-08T06:03:46.539Z,14.48
2023-04-08T06:06:16.263Z,13.20
2023-04-08T06:08:43.528Z,12.98
2023-04-08T06:11:10.938Z,13.90
2023-04-08T06:13:40.810Z,13.55
2023-04-08T06:16:12.921Z,15.27
2023-04-08T06:18:42.558Z,13.45
2023-04-08T06:21:15.421Z,13.40
2023-04-08T06:23:45.401Z,14.00
2023-04-08T06:26:13.331Z,13.77
2023-04-08T06:28:43.100Z,12.52
2023-04-08T06:31:10.360Z,12.50
2023-04-08T06:33:42.341Z,12.23
2023-04-08T06:36:09.827Z,12.63
2023-04-08T06:38:37.162Z,12.90
2023-04-08T06:41:06.443Z,13.43
2023-04-08T06:43:34.558Z,12.57
2023-04-08T06:46:04.252Z,14.10
2023-04-08T06:48:34.341Z,15.45
2023-04-08T06:51:01.798Z,14.00
2023-04-08T06:53:32.838Z,14.55
2023-04-08T06:56:00.439Z,15.15
2023-04-08T06:58:27.726Z,14.30
2023-04-08T07:00:58.066Z,14.75
2023-04-08T07:03:25.484Z,14.45
2023-04-08T07:05:55.539Z,13.75
2023-04-08T07:08:22.804Z,13.52
2023-04-08T07:10:51.924Z,14.00
2023-04-08T07:13:24.066Z,19.00
2023-04-08T07:15:52.252Z,16.38
2023-04-08T07:18:22.469Z,15.40
2023-04-08T07:20:56.479Z,13.88
2023-04-08T07:23:26.225Z,13.30
2023-04-08T07:25:56.660Z,12.60
2023-04-08T07:28:23.899Z,12.85
2023-04-08T07:30:53.297Z,13.07
2023-04-08T07:33:26.475Z,13.05
2023-04-08T07:35:53.744Z,14.00
2023-04-08T07:38:23.471Z,13.13
2023-04-08T07:40:52.822Z,14.05
2023-04-08T07:43:20.506Z,13.50
2023-04-08T07:45:50.488Z,13.02
2023-04-08T07:48:20.584Z,14.23
2023-04-08T07:51:09.172Z,13.60
2023-04-08T07:53:38.828Z,13.15
2023-04-08T07:56:14.139Z,12.73
2023-04-08T07:58:42.028Z,13.77
2023-04-08T08:01:23.610Z,13.50
2023-04-08T08:03:54.615Z,12.93
2023-04-08T08:06:24.533Z,13.02
2023-04-08T08:08:51.806Z,13.00
2023-04-08T08:11:19.368Z,13.40
2023-04-08T08:13:46.650Z,13.00
2023-04-08T08:16:14.170Z,13.75
2023-04-08T08:18:41.667Z,13.40
2023-04-08T08:21:13.852Z,13.05
2023-04-08T08:23:41.122Z,12.63
2023-04-08T08:26:15.907Z,12.35
2023-04-08T08:28:43.226Z,12.85
2023-04-08T08:31:15.394Z,13.15
2023-04-08T08:33:42.733Z,13.15
2023-04-08T08:36:12.418Z,12.30
2023-04-08T08:38:39.755Z,13.02
2023-04-08T08:41:07.109Z,12.75
2023-04-08T08:43:34.680Z,12.35
2023-04-08T08:46:04.636Z,13.40
2023-04-08T08:48:32.925Z,12.65
2023-04-08T08:51:00.728Z,12.02
2023-04-08T08:53:35.759Z,11.60
2023-04-08T08:58:42.586Z,11.85
2023-04-08T09:01:38.339Z,12.57
2023-04-08T09:04:23.333Z,11.05
2023-04-08T09:07:08.915Z,11.13
2023-04-08T09:09:55.288Z,11.13
2023-04-08T09:12:31.373Z,11.60
2023-04-08T09:15:08.630Z,12.15
2023-04-08T09:17:42.981Z,11.95
2023-04-08T09:20:15.368Z,11.80
2023-04-08T09:23:00.362Z,11.98
2023-04-08T09:25:29.608Z,11.27
2023-04-08T09:27:59.482Z,11.48
2023-04-08T09:30:27.881Z,11.43
2023-04-08T09:32:57.334Z,11.77
2023-04-08T09:35:29.126Z,13.82
2023-04-08T09:40:26.490Z,12.23
2023-04-08T09:42:56.250Z,13.35
2023-04-08T09:45:28.160Z,14.60
2023-04-08T09:48:14.431Z,13.40
2023-04-08T09:50:47.671Z,11.27
2023-04-08T09:53:26.335Z,9.75
2023-04-08T09:55:59.764Z,10.60
2023-04-08T09:58:42.790Z,11.32
2023-04-08T10:01:19.376Z,11.00
2023-04-08T10:03:54.821Z,10.65
2023-04-08T10:06:27.857Z,11.25
2023-04-08T10:08:59.069Z,11.45
2023-04-08T10:11:30.379Z,11.43
2023-04-08T10:13:57.739Z,11.10
2023-04-08T10:16:27.474Z,10.85
2023-04-08T10:18:57.442Z,10.80
2023-04-08T10:21:48.466Z,10.20
2023-04-08T10:24:24.217Z,11.55
2023-04-08T10:26:51.509Z,13.43
2023-04-08T10:29:18.826Z,11.65
2023-04-08T10:31:52.812Z,11.85
2023-04-08T10:34:26.230Z,13.55
2023-04-08T10:36:55.722Z,12.98
2023-04-08T10:39:27.201Z,12.52
2023-04-08T10:41:56.740Z,12.10
2023-04-08T10:44:28.113Z,13.02
2023-04-08T10:46:55.860Z,12.88
2023-04-08T10:49:25.690Z,13.52
2023-04-08T10:51:53.379Z,12.93
2023-04-08T10:54:20.639Z,12.70
2023-04-08T10:56:53.622Z,12.32
2023-04-08T10:59:33.573Z,13.40
2023-04-08T11:02:03.530Z,12.15
2023-04-08T11:04:33.258Z,16.23
2023-04-08T11:07:07.718Z,15.93
2023-04-08T11:09:35.374Z,14.57
2023-04-08T11:12:04.867Z,14.32
2023-04-08T11:14:33.222Z,15.02
2023-04-08T11:17:01.706Z,14.23
2023-04-08T11:19:29.636Z,14.23
2023-04-08T11:21:59.118Z,14.43
2023-04-08T11:24:28.841Z,14.20
2023-04-08T11:26:57.217Z,15.50
2023-04-08T11:29:28.133Z,15.23
2023-04-08T11:31:57.740Z,14.40
2023-04-08T11:34:25.816Z,14.63
2023-04-08T11:36:53.342Z,13.55
2023-04-08T11:39:26.489Z,15.10
2023-04-08T11:41:53.754Z,14.07
2023-04-08T11:44:29.661Z,14.88
2023-04-08T11:46:57.403Z,14.70
2023-04-08T11:49:24.892Z,17.08
2023-04-08T11:51:59.453Z,16.02
2023-04-08T11:54:33.584Z,16.30
2023-04-08T11:57:03.004Z,14.98
2023-04-08T11:59:30.351Z,14.68
2023-04-08T12:01:58.138Z,14.73
2023-04-08T12:04:28.237Z,13.88
2023-04-08T12:06:58.165Z,14.85
2023-04-08T12:09:30.694Z,14.25
2023-04-08T12:12:01.674Z,14.05
2023-04-08T12:14:29.079Z,14.52
2023-04-08T12:16:58.717Z,14.60
2023-04-08T12:19:27.042Z,13.93
2023-04-08T12:21:54.361Z,13.85
2023-04-08T12:24:21.988Z,14.07
2023-04-08T12:26:49.273Z,13.63
2023-04-08T12:29:16.802Z,12.98
2023-04-08T12:31:44.281Z,13.65
2023-04-08T12:34:16.830Z,14.32
2023-04-08T12:36:44.894Z,13.38
2023-04-08T12:39:14.640Z,13.85
2023-04-08T12:41:44.258Z,15.57
2023-04-08T12:44:11.559Z,13.48
2023-04-08T12:46:38.889Z,13.23
2023-04-08T12:49:06.911Z,13.07
2023-04-08T12:51:37.214Z,13.10
2023-04-08T12:54:04.991Z,12.32
2023-04-08T12:56:35.157Z,11.23
2023-04-08T12:59:02.601Z,11.68
2023-04-08T13:01:30.885Z,11.65
2023-04-08T13:04:00.759Z,12.25
2023-04-08T13:06:30.360Z,12.32
2023-04-08T13:08:57.967Z,11.95
2023-04-08T13:11:27.678Z,11.18
2023-04-08T13:13:55.076Z,10.00
2023-04-08T13:16:24.989Z,8.30
2023-04-08T13:18:52.629Z,7.45
2023-04-08T13:21:22.629Z,7.72
2023-04-08T13:23:49.937Z,8.43
2023-04-08T13:26:22.115Z,8.05
2023-04-08T13:28:57.266Z,7.53
2023-04-08T13:31:26.124Z,7.22
2023-04-08T13:33:56.079Z,8.68
2023-04-08T13:36:25.974Z,7.93
2023-04-08T13:38:53.716Z,8.55
2023-04-08T13:41:21.279Z,8.10
2023-04-08T13:43:48.750Z,7.38
2023-04-08T13:46:16.375Z,7.22
2023-04-08T13:48:46.301Z,7.90
2023-04-08T13:51:16.193Z,6.88
2023-04-08T13:53:43.488Z,7.20
2023-04-08T13:56:10.769Z,6.95
2023-04-08T13:58:38.038Z,6.85
2023-04-08T14:01:05.729Z,6.35
2023-04-08T14:03:35.524Z,5.35
2023-04-08T14:06:02.798Z,5.07
2023-04-08T14:08:30.258Z,4.97
2023-04-08T14:10:59.766Z,4.38
2023-04-08T14:13:30.026Z,4.45
2023-04-08T14:15:58.495Z,4.30
2023-04-08T14:18:26.493Z,3.80
2023-04-08T14:20:53.763Z,4.22
2023-04-08T14:23:23.607Z,4.53
2023-04-08T14:25:50.897Z,4.70
2023-04-08T14:28:18.172Z,4.80
2023-04-08T14:30:45.532Z,4.80
2023-04-08T14:33:18.524Z,4.55
2023-04-08T14:35:45.892Z,4.35
2023-04-08T14:38:16.116Z,4.10
2023-04-08T14:40:43.425Z,4.88
2023-04-08T14:43:10.678Z,5.07
2023-04-08T14:45:37.997Z,4.38
2023-04-08T14:48:07.829Z,4.50
2023-04-08T14:50:37.492Z,5.13
2023-04-08T14:53:04.758Z,4.68
2023-04-08T14:55:36.457Z,4.82
2023-04-08T15:00:35.346Z,4.25
2023-04-08T15:03:02.953Z,5.40
2023-04-08T15:05:30.463Z,5.03
2023-04-08T15:07:57.794Z,4.78
2023-04-08T15:10:28.019Z,5.00
2023-04-08T15:12:55.715Z,5.68
2023-04-08T15:15:25.342Z,4.72
2023-04-08T15:17:52.799Z,4.68
2023-04-08T15:20:22.610Z,4.15
2023-04-08T15:22:54.541Z,3.92
2023-04-08T15:25:24.149Z,4.45
2023-04-08T15:27:51.748Z,4.30
2023-04-08T15:30:24.403Z,4.40
2023-04-08T15:32:52.652Z,3.63
2023-04-08T15:35:20.085Z,3.85
2023-04-08T15:37:52.355Z,3.70
2023-04-08T15:40:25.801Z,4.20
2023-04-08T15:42:53.139Z,3.75
2023-04-08T15:45:23.035Z,4.20
2023-04-08T15:47:50.622Z,4.00
2023-04-08T15:50:20.333Z,4.45
2023-04-08T15:52:49.779Z,4.38
2023-04-08T15:55:19.292Z,5.95
2023-04-08T15:57:46.778Z,5.47
2023-04-08T16:00:16.571Z,5.53
2023-04-08T16:02:48.902Z,5.22
2023-04-08T16:05:18.663Z,5.63
2023-04-08T16:07:46.710Z,5.75
2023-04-08T16:10:16.307Z,4.97
2023-04-08T16:12:46.335Z,5.32
2023-04-08T16:15:16.312Z,5.35
2023-04-08T16:17:46.198Z,5.30
2023-04-08T16:20:17.325Z,4.70
2023-04-08T16:22:45.913Z,5.80
2023-04-08T16:25:13.261Z,6.43
2023-04-08T16:27:40.561Z,6.53
2023-04-08T16:30:08.584Z,6.22
2023-04-08T16:32:35.889Z,6.55
2023-04-08T16:35:06.053Z,8.18
2023-04-08T16:37:36.037Z,7.10
2023-04-08T16:40:06.647Z,5.68
2023-04-08T16:42:33.963Z,5.72
2023-04-08T16:45:03.769Z,5.55
2023-04-08T16:47:33.931Z,5.40
2023-04-08T16:50:01.754Z,5.32
2023-04-08T16:52:29.094Z,5.18
2023-04-08T16:54:57.629Z,5.03
2023-04-08T16:57:28.791Z,5.38
2023-04-08T16:59:56.107Z,4.68
2023-04-08T17:02:23.598Z,5.32
2023-04-08T17:04:51.183Z,5.80
2023-04-08T17:07:18.509Z,5.60
2023-04-08T17:09:51.483Z,5.07
2023-04-08T17:12:21.207Z,5.72
2023-04-08T17:14:48.485Z,5.72
2023-04-08T17:17:18.104Z,5.50
2023-04-08T17:19:47.994Z,5.60
2023-04-08T17:22:17.912Z,5.40
2023-04-08T17:24:47.814Z,5.60
2023-04-08T17:27:15.658Z,6.05
2023-04-08T17:29:43.012Z,5.70
2023-04-08T17:32:10.822Z,5.25
2023-04-08T17:34:38.468Z,5.70
2023-04-08T17:37:09.293Z,5.28
2023-04-08T17:39:40.791Z,5.93
2023-04-08T17:44:38.020Z,5.07
2023-04-08T17:47:05.270Z,6.18
2023-04-08T17:49:32.524Z,5.70
2023-04-08T17:52:02.336Z,5.38
2023-04-08T17:54:31.473Z,5.60
2023-04-08T17:56:58.829Z,5.72
2023-04-08T17:59:26.231Z,5.55
2023-04-08T18:01:53.775Z,6.20
2023-04-08T18:04:21.620Z,6.13
2023-04-08T18:06:48.976Z,5.75
2023-04-08T18:09:18.451Z,6.07
2023-04-08T18:11:47.913Z,6.40
2023-04-08T18:14:20.281Z,6.28
2023-04-08T18:16:49.925Z,6.57
2023-04-08T18:19:21.745Z,6.00
2023-04-08T18:24:19.313Z,5.18
2023-04-08T18:27:01.530Z,5.25
2023-04-08T18:29:33.327Z,5.03
2023-04-08T18:32:00.721Z,4.90
2023-04-08T18:34:28.063Z,4.57
2023-04-08T18:36:58.282Z,4.50
2023-04-08T18:39:27.825Z,5.13
2023-04-08T18:41:55.790Z,4.95
2023-04-08T18:44:25.472Z,4.85
2023-04-08T18:46:56.404Z,5.10
2023-04-08T18:49:23.742Z,5.20
2023-04-08T18:52:01.382Z,5.40
2023-04-08T18:54:30.261Z,5.13
2023-04-08T18:56:57.863Z,5.18
2023-04-08T18:59:27.757Z,5.38
2023-04-08T19:01:55.792Z,5.45
2023-04-08T19:04:23.518Z,5.00
2023-04-08T19:06:50.953Z,4.78
2023-04-08T19:09:18.468Z,4.60
2023-04-08T19:11:48.482Z,4.95
2023-04-08T19:14:18.122Z,5.38
2023-04-08T19:16:47.867Z,5.22
2023-04-08T19:19:16.233Z,5.78
2023-04-08T19:21:43.860Z,5.38
2023-04-08T19:24:11.139Z,5.40
2023-04-08T19:26:41.141Z,5.60
2023-04-08T19:29:11.929Z,5.95
2023-04-08T19:31:39.446Z,6.60
2023-04-08T19:34:06.891Z,6.10
2023-04-08T19:36:36.528Z,5.93
2023-04-08T19:39:04.574Z,7.00
2023-04-08T19:41:32.045Z,6.13
2023-04-08T19:43:59.333Z,6.82
2023-04-08T19:46:28.735Z,6.03
2023-04-08T19:48:58.995Z,6.50
2023-04-08T19:51:27.440Z,6.40
2023-04-08T19:53:54.909Z,6.97
2023-04-08T19:56:22.229Z,6.63
2023-04-08T19:58:52.481Z,7.00
2023-04-08T20:01:20.058Z,6.22
2023-04-08T20:03:50.408Z,6.63
2023-04-08T20:06:18.990Z,6.60
2023-04-08T20:08:46.748Z,7.63
2023-04-08T20:11:14.087Z,6.35
2023-04-08T20:13:41.429Z,7.32
2023-04-08T20:16:08.783Z,7.50
2023-04-08T20:18:36.074Z,7.15
2023-04-08T20:21:03.497Z,7.30
2023-04-08T20:23:31.168Z,6.65
2023-04-08T20:25:59.460Z,6.80
2023-04-08T20:28:29.307Z,6.85
2023-04-08T20:31:01.822Z,7.65
2023-04-08T20:33:31.598Z,6.55
2023-04-08T20:35:59.030Z,6.95
2023-04-08T20:38:29.006Z,7.20
2023-04-08T20:40:56.462Z,6.45
2023-04-08T20:43:26.135Z,7.20
2023-04-08T20:45:55.790Z,6.70
2023-04-08T20:48:25.481Z,7.15
2023-04-08T20:50:52.769Z,7.60
2023-04-08T20:53:20.197Z,7.10
2023-04-08T20:55:47.494Z,7.60
2023-04-08T20:58:14.804Z,7.65
2023-04-08T21:00:42.074Z,7.38
2023-04-08T21:03:09.516Z,7.75
2023-04-08T21:05:39.677Z,7.75
2023-04-08T21:08:07.304Z,7.70
2023-04-08T21:10:34.762Z,8.52
2023-04-08T21:13:04.465Z,8.02
2023-04-08T21:15:31.734Z,7.25
2023-04-08T21:17:59.068Z,7.53
2023-04-08T21:20:28.492Z,7.68
2023-04-08T21:22:56.030Z,7.78
2023-04-08T21:25:23.461Z,8.20
2023-04-08T21:27:50.720Z,8.00
2023-04-08T21:30:18.112Z,7.57
2023-04-08T21:32:45.450Z,8.45
2023-04-08T21:35:17.605Z,8.90
2023-04-08T21:37:46.995Z,9.20
2023-04-08T21:40:17.228Z,8.07
2023-04-08T21:42:44.641Z,8.23
2023-04-08T21:45:15.470Z,9.50
2023-04-08T21:47:42.883Z,8.27
2023-04-08T21:50:10.800Z,8.68
2023-04-08T21:52:38.131Z,9.38
2023-04-08T21:55:06.563Z,8.15
2023-04-08T21:57:36.129Z,8.18
2023-04-08T22:00:08.170Z,7.63
2023-04-08T22:02:40.761Z,8.25
2023-04-08T22:05:09.170Z,7.43
2023-04-08T22:07:36.484Z,7.43
2023-04-08T22:10:04.095Z,7.78
2023-04-08T22:12:31.479Z,8.00
2023-04-08T22:14:58.802Z,7.75
2023-04-08T22:17:26.423Z,8.07
2023-04-08T22:19:56.785Z,8.23
2023-04-08T22:22:24.046Z,8.25
2023-04-08T22:24:51.429Z,7.97
2023-04-08T22:27:18.703Z,8.30
2023-04-08T22:29:48.968Z,7.90
2023-04-08T22:32:18.243Z,7.53
2023-04-08T22:34:50.747Z,7.50
2023-04-08T22:37:18.014Z,7.57
2023-04-08T22:39:45.338Z,8.07
2023-04-08T22:42:12.686Z,7.80
2023-04-08T22:44:39.968Z,7.57
2023-04-08T22:47:07.661Z,8.02
2023-04-08T22:49:37.452Z,8.00
2023-04-08T22:52:04.717Z,7.82
2023-04-08T22:54:34.653Z,7.93
2023-04-08T22:57:02.172Z,7.53
2023-04-08T22:59:34.200Z,7.50
2023-04-08T23:02:02.175Z,7.65
2023-04-08T23:04:32.161Z,8.75
2023-04-08T23:07:01.757Z,8.35
2023-04-08T23:09:29.089Z,8.02
2023-04-08T23:11:58.588Z,8.60
2023-04-08T23:14:25.869Z,8.25
2023-04-08T23:16:53.113Z,8.73
2023-04-08T23:19:20.896Z,8.48
2023-04-08T23:21:48.175Z,8.60
2023-04-08T23:24:15.543Z,8.27
2023-04-08T23:26:42.856Z,8.15
2023-04-08T23:29:12.714Z,8.50
2023-04-08T23:31:42.454Z,7.57
2023-04-08T23:34:09.972Z,8.10
2023-04-08T23:36:39.453Z,7.97
2023-04-08T23:39:09.128Z,7.82
2023-04-08T23:41:38.659Z,8.18
2023-04-08T23:44:10.645Z,8.10
2023-04-08T23:46:37.923Z,7.60
2023-04-08T23:49:05.286Z,7.90
2023-04-08T23:51:32.595Z,8.43
2023-04-08T23:54:01.956Z,8.05
2023-04-08T23:56:29.313Z,8.82
2023-04-08T23:58:56.766Z,9.15
